Time;durP1;ratioP1;P1;durP2;ratioP2;P2;SDS_P1;SDS_P2;PMS_P1;PMS_P2;Temp;Humidity;BMP_temperature;BMP_pressure;BME280_temperature;BME280_humidity;BME280_pressure;Samples;Min_cycle;Max_cycle;Signal;HPM_P1;HPM_P2
2022/04/17 00:00:32;;;;;;;8.13;5.78;;;7.00;90.00;;;;;;5018020;28;20857;-51
2022/04/17 00:02:58;;;;;;;8.23;5.88;;;7.00;90.70;;;;;;5017516;28;20049;-52
2022/04/17 00:05:24;;;;;;;7.60;5.68;;;7.00;91.20;;;;;;5010281;28;20056;-56
2022/04/17 00:07:50;;;;;;;9.75;6.13;;;7.00;91.10;;;;;;5016328;28;20076;-57
2022/04/17 00:10:16;;;;;;;9.35;6.18;;;6.90;91.60;;;;;;5016974;28;20071;-57
2022/04/17 00:12:43;;;;;;;9.48;6.25;;;6.90;92.70;;;;;;5011181;28;20045;-57
2022/04/17 00:15:10;;;;;;;8.77;6.07;;;6.90;93.20;;;;;;5009406;28;20050;-57
2022/04/17 00:17:42;;;;;;;8.77;6.03;;;6.90;93.50;;;;;;5006423;28;20065;-57
2022/04/17 00:20:15;;;;;;;8.75;6.20;;;6.80;94.40;;;;;;5013339;28;20041;-57
2022/04/17 00:22:42;;;;;;;8.57;6.70;;;6.80;96.80;;;;;;5014171;28;20093;-57
2022/04/17 00:25:10;;;;;;;9.65;6.18;;;6.70;96.70;;;;;;5002015;28;20107;-53
2022/04/17 00:27:39;;;;;;;8.40;6.47;;;6.60;98.10;;;;;;4981978;28;20049;-51
2022/04/17 00:30:06;;;;;;;7.55;6.72;;;6.60;98.00;;;;;;5014536;28;20088;-57
2022/04/17 00:32:32;;;;;;;10.40;6.75;;;6.60;99.50;;;;;;5014235;28;20433;-56
2022/04/17 00:34:58;;;;;;;8.80;6.07;;;6.50;99.10;;;;;;4989015;28;20128;-56
2022/04/17 00:37:25;;;;;;;8.82;6.85;;;6.50;99.90;;;;;;4994538;28;20145;-59
2022/04/17 00:39:52;;;;;;;7.70;6.15;;;6.50;99.90;;;;;;5014672;28;20045;-57
2022/04/17 00:42:18;;;;;;;8.70;6.28;;;6.50;99.90;;;;;;5003723;28;20646;-56
2022/04/17 00:44:44;;;;;;;7.55;6.68;;;6.50;99.90;;;;;;5011799;28;20152;-57
2022/04/17 00:47:15;;;;;;;7.70;6.40;;;6.50;99.90;;;;;;4992183;28;20100;-57
2022/04/17 00:49:45;;;;;;;8.80;6.85;;;6.40;99.90;;;;;;5003722;28;20044;-57
2022/04/17 00:52:13;;;;;;;8.52;6.80;;;6.40;99.90;;;;;;5013121;28;20048;-56
2022/04/17 00:54:44;;;;;;;10.93;7.07;;;6.40;99.90;;;;;;5001801;28;20045;-57
2022/04/17 00:57:12;;;;;;;9.65;6.75;;;6.30;99.90;;;;;;5008530;28;20496;-52
2022/04/17 00:59:42;;;;;;;10.63;6.65;;;6.30;99.90;;;;;;5019480;28;20533;-57
2022/04/17 01:02:09;;;;;;;9.27;7.35;;;6.30;99.90;;;;;;5035828;28;20870;-56
2022/04/17 01:04:36;;;;;;;7.88;6.93;;;6.30;99.90;;;;;;5014714;28;20050;-56
2022/04/17 01:07:03;;;;;;;8.77;6.60;;;6.30;99.90;;;;;;5014806;28;20224;-56
2022/04/17 01:09:30;;;;;;;8.38;6.65;;;6.30;99.90;;;;;;5006122;28;20647;-56
2022/04/17 01:11:57;;;;;;;9.45;6.75;;;6.30;99.90;;;;;;4993123;28;20060;-56
2022/04/17 01:14:26;;;;;;;8.38;7.10;;;6.30;99.90;;;;;;5009746;28;20060;-56
2022/04/17 01:16:53;;;;;;;11.35;7.32;;;6.20;99.90;;;;;;5019606;28;20564;-50
2022/04/17 01:19:20;;;;;;;9.93;6.72;;;6.20;99.90;;;;;;5001246;28;20056;-52
2022/04/17 01:21:49;;;;;;;8.60;6.70;;;6.20;99.90;;;;;;5001557;28;20148;-51
2022/04/17 01:27:03;;;;;;;11.27;8.27;;;6.20;99.90;;;;;;5013668;28;20045;-53
2022/04/17 01:29:35;;;;;;;9.00;7.32;;;6.20;99.90;;;;;;4977481;28;20057;-51
2022/04/17 01:32:10;;;;;;;10.02;7.18;;;6.10;99.90;;;;;;5006412;28;20847;-50
2022/04/17 01:34:37;;;;;;;10.38;6.93;;;6.10;99.90;;;;;;5012086;28;21672;-52
2022/04/17 01:37:04;;;;;;;9.68;7.45;;;6.10;99.90;;;;;;5007104;28;20089;-52
2022/04/17 01:39:31;;;;;;;8.90;7.60;;;6.10;99.90;;;;;;5011165;28;20053;-49
2022/04/17 01:41:59;;;;;;;13.45;8.18;;;6.10;99.90;;;;;;5019545;28;20049;-49
2022/04/17 01:44:28;;;;;;;9.77;7.63;;;6.00;99.90;;;;;;5019875;28;20144;-50
2022/04/17 01:46:56;;;;;;;10.52;7.80;;;6.00;99.90;;;;;;5016495;28;20038;-53
2022/04/17 01:49:23;;;;;;;10.27;7.00;;;6.00;99.90;;;;;;5003621;28;20060;-51
2022/04/17 01:51:52;;;;;;;11.57;7.85;;;6.00;99.90;;;;;;5015549;28;20104;-51
2022/04/17 01:54:19;;;;;;;8.80;7.47;;;6.00;99.90;;;;;;5019228;28;20408;-52
2022/04/17 01:56:49;;;;;;;10.43;7.25;;;5.90;99.90;;;;;;5017251;28;20501;-50
2022/04/17 01:59:17;;;;;;;7.95;6.95;;;5.90;99.90;;;;;;5012899;28;20061;-51
2022/04/17 02:01:44;;;;;;;9.98;7.43;;;5.90;99.90;;;;;;4997529;28;20121;-52
2022/04/17 02:04:10;;;;;;;9.48;7.47;;;5.90;99.90;;;;;;5016093;28;20123;-52
2022/04/17 02:06:41;;;;;;;11.07;7.00;;;5.90;99.90;;;;;;5018115;28;20042;-51
2022/04/17 02:09:11;;;;;;;10.27;7.47;;;5.90;99.90;;;;;;5011151;28;20053;-54
2022/04/17 02:11:41;;;;;;;11.63;8.20;;;5.90;99.90;;;;;;5012593;28;20073;-53
2022/04/17 02:14:08;;;;;;;11.38;8.40;;;5.90;99.90;;;;;;5013826;28;20174;-50
2022/04/17 02:16:34;;;;;;;11.63;8.52;;;5.80;99.90;;;;;;5019820;28;20120;-51
2022/04/17 02:19:00;;;;;;;13.05;8.55;;;5.70;99.90;;;;;;5010968;28;20914;-53
2022/04/17 02:21:27;;;;;;;10.07;7.80;;;5.70;99.90;;;;;;5021267;28;20038;-48
2022/04/17 02:23:53;;;;;;;10.50;8.77;;;5.60;99.90;;;;;;5000347;28;20488;-53
2022/04/17 02:26:19;;;;;;;10.05;8.00;;;5.60;99.90;;;;;;5000040;28;20049;-51
2022/04/17 02:28:46;;;;;;;11.02;8.90;;;5.60;99.90;;;;;;5016778;28;20168;-48
2022/04/17 02:31:15;;;;;;;10.57;8.52;;;5.50;99.90;;;;;;5024000;28;20058;-50
2022/04/17 02:33:41;;;;;;;9.68;8.65;;;5.40;99.90;;;;;;5018360;28;20064;-52
2022/04/17 02:36:07;;;;;;;10.65;8.30;;;5.50;99.90;;;;;;5017197;28;20049;-56
2022/04/17 02:38:34;;;;;;;9.88;7.75;;;5.50;99.90;;;;;;5020110;28;20041;-52
2022/04/17 02:41:00;;;;;;;10.02;9.00;;;5.50;99.90;;;;;;5020543;28;20092;-48
2022/04/17 02:43:26;;;;;;;10.20;8.75;;;5.40;99.90;;;;;;5019108;28;20050;-48
2022/04/17 02:45:53;;;;;;;10.57;8.10;;;5.40;99.90;;;;;;5011914;28;20476;-54
2022/04/17 02:48:20;;;;;;;10.10;8.63;;;5.40;99.90;;;;;;5011368;28;20056;-56
2022/04/17 02:50:47;;;;;;;13.25;8.88;;;5.30;99.90;;;;;;5008824;28;20553;-56
2022/04/17 02:53:14;;;;;;;12.02;8.75;;;5.30;99.90;;;;;;5009706;28;20049;-55
2022/04/17 02:55:40;;;;;;;11.77;9.00;;;5.30;99.90;;;;;;5008748;28;20084;-51
2022/04/17 02:58:06;;;;;;;12.15;8.70;;;5.20;99.90;;;;;;5009272;28;20088;-51
2022/04/17 03:00:32;;;;;;;10.45;8.98;;;5.20;99.90;;;;;;4997554;28;20397;-51
2022/04/17 03:05:43;;;;;;;14.65;9.73;;;5.10;99.90;;;;;;5012015;28;20297;-54
2022/04/17 03:08:12;;;;;;;11.38;9.02;;;5.00;99.90;;;;;;5012298;28;20117;-56
2022/04/17 03:10:41;;;;;;;13.20;9.20;;;5.10;99.90;;;;;;5003937;28;20049;-56
2022/04/17 03:13:08;;;;;;;12.10;9.02;;;5.10;99.90;;;;;;5014251;28;20041;-55
2022/04/17 03:15:37;;;;;;;13.30;8.65;;;5.00;99.90;;;;;;5011174;28;20049;-56
2022/04/17 03:18:10;;;;;;;10.00;8.50;;;5.00;99.90;;;;;;5014533;28;20048;-56
2022/04/17 03:20:37;;;;;;;11.13;8.43;;;5.00;99.90;;;;;;5033657;28;20055;-56
2022/04/17 03:23:03;;;;;;;11.10;7.97;;;5.00;99.90;;;;;;5015142;28;20144;-56
2022/04/17 03:25:30;;;;;;;11.30;8.75;;;4.90;99.90;;;;;;5016483;28;20045;-54
2022/04/17 03:27:57;;;;;;;11.90;9.57;;;5.00;99.90;;;;;;5008673;28;20722;-56
2022/04/17 03:30:23;;;;;;;11.95;8.98;;;5.00;99.90;;;;;;5011941;28;20137;-56
2022/04/17 03:32:51;;;;;;;14.10;9.23;;;5.00;99.90;;;;;;5020928;28;20049;-56
2022/04/17 03:35:18;;;;;;;10.82;9.27;;;5.00;99.90;;;;;;5011278;28;20123;-56
2022/04/17 03:37:45;;;;;;;11.43;9.20;;;4.90;99.90;;;;;;5010810;28;20095;-56
2022/04/17 03:40:16;;;;;;;13.80;9.50;;;4.90;99.90;;;;;;5019456;28;20049;-56
2022/04/17 03:42:43;;;;;;;10.85;8.98;;;4.80;99.90;;;;;;5010835;28;20702;-56
2022/04/17 03:45:17;;;;;;;12.35;9.27;;;4.80;99.90;;;;;;5017187;28;21059;-56
2022/04/17 03:47:43;;;;;;;12.25;9.50;;;4.80;99.90;;;;;;5024936;28;20177;-56
2022/04/17 03:50:11;;;;;;;11.60;8.82;;;4.80;99.90;;;;;;5013867;28;20056;-56
2022/04/17 03:52:45;;;;;;;10.43;9.30;;;4.80;99.90;;;;;;5008583;28;20049;-56
2022/04/17 03:55:12;;;;;;;12.52;8.77;;;4.80;99.90;;;;;;5016723;28;20049;-56
2022/04/17 03:57:39;;;;;;;11.88;8.82;;;4.80;99.90;;;;;;5008081;28;20589;-55
2022/04/17 04:00:08;;;;;;;12.00;9.55;;;4.80;99.90;;;;;;5011375;28;20532;-56
2022/04/17 04:02:41;;;;;;;15.57;9.75;;;4.70;99.90;;;;;;4994285;28;20085;-56
2022/04/17 04:05:10;;;;;;;10.90;8.90;;;4.70;99.90;;;;;;5002028;28;20081;-52
2022/04/17 04:07:37;;;;;;;12.95;9.73;;;4.80;99.90;;;;;;5011062;28;20124;-51
2022/04/17 04:10:05;;;;;;;10.85;9.32;;;4.80;99.90;;;;;;5008278;28;20056;-52
2022/04/17 04:12:31;;;;;;;13.95;8.82;;;4.80;99.90;;;;;;5012058;28;20053;-51
2022/04/17 04:14:57;;;;;;;12.63;9.70;;;4.80;99.90;;;;;;5020617;28;20053;-50
2022/04/17 04:17:23;;;;;;;11.38;9.02;;;4.80;99.90;;;;;;5006450;28;20485;-50
2022/04/17 04:19:49;;;;;;;12.73;9.73;;;4.80;99.90;;;;;;5008305;28;20219;-50
2022/04/17 04:22:16;;;;;;;12.30;9.50;;;4.70;99.90;;;;;;5008884;28;20054;-55
2022/04/17 04:24:42;;;;;;;12.05;8.85;;;4.70;99.90;;;;;;5019193;28;20054;-55
2022/04/17 04:29:53;;;;;;;13.68;9.93;;;4.70;99.90;;;;;;5015579;28;20737;-55
2022/04/17 04:32:20;;;;;;;12.80;9.32;;;4.70;99.90;;;;;;5015299;28;20045;-50
2022/04/17 04:34:47;;;;;;;11.13;8.32;;;4.70;99.90;;;;;;5012543;28;20089;-49
2022/04/17 04:37:13;;;;;;;12.35;9.38;;;4.70;99.90;;;;;;5009812;28;20046;-52
2022/04/17 04:39:39;;;;;;;11.82;9.63;;;4.80;99.90;;;;;;5004476;28;20060;-49
2022/04/17 04:42:05;;;;;;;12.32;9.60;;;4.70;99.90;;;;;;5007008;28;20046;-55
2022/04/17 04:44:31;;;;;;;12.50;9.57;;;4.70;99.90;;;;;;5009971;28;20052;-48
2022/04/17 04:46:57;;;;;;;11.65;9.40;;;4.70;99.90;;;;;;5006793;28;20042;-51
2022/04/17 04:49:29;;;;;;;11.50;9.10;;;4.70;99.90;;;;;;5011090;28;20503;-52
2022/04/17 04:52:02;;;;;;;10.82;9.15;;;4.70;99.90;;;;;;5009741;28;20108;-55
2022/04/17 04:54:32;;;;;;;12.75;9.55;;;4.70;99.90;;;;;;5015833;28;20136;-55
2022/04/17 04:57:00;;;;;;;13.90;9.40;;;4.70;99.90;;;;;;5012069;28;20416;-50
2022/04/17 04:59:26;;;;;;;14.57;9.38;;;4.70;99.90;;;;;;5019732;28;20061;-50
2022/04/17 05:01:52;;;;;;;12.73;9.60;;;4.70;99.90;;;;;;5014920;28;20053;-53
2022/04/17 05:04:22;;;;;;;13.18;10.13;;;4.70;99.90;;;;;;5010984;28;20069;-55
2022/04/17 05:06:50;;;;;;;13.50;9.68;;;4.80;99.90;;;;;;5007075;28;21333;-51
2022/04/17 05:09:16;;;;;;;12.43;9.20;;;4.80;99.90;;;;;;5017074;28;20798;-50
2022/04/17 05:11:42;;;;;;;12.27;10.32;;;4.80;99.90;;;;;;5020576;28;20045;-50
2022/04/17 05:14:11;;;;;;;12.02;9.57;;;4.90;99.90;;;;;;5009327;28;20049;-50
2022/04/17 05:16:37;;;;;;;13.15;8.95;;;4.90;99.90;;;;;;5018448;28;20165;-50
2022/04/17 05:19:20;;;;;;;13.13;10.27;;;5.00;99.90;;;;;;5020201;28;20115;-49
2022/04/17 05:21:53;;;;;;;13.50;9.55;;;5.10;99.90;;;;;;5021103;28;20750;-51
2022/04/17 05:24:19;;;;;;;11.52;9.55;;;5.30;99.90;;;;;;5013234;28;20048;-49
2022/04/17 05:26:45;;;;;;;12.90;9.35;;;5.30;99.90;;;;;;5012920;28;20110;-53
2022/04/17 05:29:11;;;;;;;11.40;8.70;;;5.40;99.90;;;;;;5024942;28;20140;-49
2022/04/17 05:31:37;;;;;;;12.05;8.88;;;5.40;99.90;;;;;;5014060;28;20049;-50
2022/04/17 05:34:03;;;;;;;13.23;9.40;;;5.40;99.90;;;;;;5006954;28;20050;-49
2022/04/17 05:36:29;;;;;;;11.88;9.55;;;5.50;99.90;;;;;;5016417;28;20120;-52
2022/04/17 05:38:56;;;;;;;12.35;9.63;;;5.60;99.90;;;;;;5003666;28;20053;-49
2022/04/17 05:41:24;;;;;;;11.40;8.82;;;5.60;99.90;;;;;;5016916;28;20125;-56
2022/04/17 05:43:51;;;;;;;12.95;9.73;;;5.70;99.90;;;;;;5015196;28;20484;-56
2022/04/17 05:46:18;;;;;;;11.75;9.23;;;5.90;99.90;;;;;;5014383;28;20135;-56
2022/04/17 05:48:44;;;;;;;10.45;8.60;;;6.10;99.90;;;;;;5010165;28;20137;-56
2022/04/17 05:51:10;;;;;;;12.43;9.88;;;6.30;99.90;;;;;;4993472;28;20101;-55
2022/04/17 05:53:36;;;;;;;12.23;8.93;;;6.50;99.90;;;;;;5017351;28;20045;-56
2022/04/17 05:56:02;;;;;;;12.68;9.52;;;6.70;99.90;;;;;;5017760;28;20055;-56
2022/04/17 05:58:28;;;;;;;10.77;8.98;;;6.90;99.90;;;;;;5015706;28;20140;-56
2022/04/17 06:00:55;;;;;;;11.07;9.52;;;7.00;99.90;;;;;;4986608;28;20124;-56
2022/04/17 06:03:22;;;;;;;10.38;8.55;;;7.20;99.90;;;;;;4999264;28;20089;-56
2022/04/17 06:05:49;;;;;;;10.23;8.75;;;7.30;99.90;;;;;;5017599;28;20052;-56
2022/04/17 06:08:15;;;;;;;10.63;8.80;;;7.50;99.90;;;;;;5014159;28;20053;-56
2022/04/17 06:10:41;;;;;;;11.77;9.88;;;7.60;99.90;;;;;;5012284;28;20393;-56
2022/04/17 06:13:07;;;;;;;11.02;9.27;;;7.80;99.90;;;;;;5017268;28;20125;-56
2022/04/17 06:15:33;;;;;;;10.27;8.95;;;7.90;99.90;;;;;;5002658;28;20054;-56
2022/04/17 06:17:59;;;;;;;11.68;9.40;;;8.00;99.90;;;;;;5016420;28;20057;-55
2022/04/17 06:20:25;;;;;;;13.60;9.35;;;8.20;99.90;;;;;;5010612;28;20057;-56
2022/04/17 06:22:51;;;;;;;11.13;8.90;;;8.30;99.90;;;;;;5015254;28;20140;-57
2022/04/17 06:25:17;;;;;;;12.52;9.48;;;8.40;99.90;;;;;;5011603;28;20057;-57
2022/04/17 06:27:45;;;;;;;12.00;9.27;;;8.50;99.90;;;;;;5000265;28;20764;-57
2022/04/17 06:30:19;;;;;;;11.85;9.63;;;8.60;99.90;;;;;;4999127;28;20239;-57
2022/04/17 06:32:46;;;;;;;10.10;9.05;;;8.70;99.90;;;;;;5011007;28;20045;-57
2022/04/17 06:35:14;;;;;;;10.25;9.15;;;8.70;99.90;;;;;;5014416;28;20056;-57
2022/04/17 06:37:58;;;;;;;11.68;9.30;;;8.80;99.90;;;;;;5014757;28;20457;-58
2022/04/17 06:40:31;;;;;;;10.77;9.52;;;8.90;99.90;;;;;;5011220;28;20486;-57
2022/04/17 06:43:03;;;;;;;11.75;9.75;;;9.00;99.90;;;;;;5009609;28;20046;-57
2022/04/17 06:45:29;;;;;;;12.15;9.13;;;9.20;99.90;;;;;;5010876;28;20378;-57
2022/04/17 06:47:55;;;;;;;11.07;8.95;;;9.20;99.90;;;;;;5012304;28;20068;-54
2022/04/17 06:50:23;;;;;;;12.45;8.68;;;9.40;99.90;;;;;;5012347;28;20053;-57
2022/04/17 06:52:50;;;;;;;11.20;9.32;;;9.60;99.90;;;;;;5011062;28;20057;-57
2022/04/17 06:55:16;;;;;;;10.38;8.88;;;9.80;99.90;;;;;;4994618;28;20524;-57
2022/04/17 06:57:48;;;;;;;10.07;9.07;;;10.10;99.90;;;;;;5011094;28;20092;-57
2022/04/17 07:00:15;;;;;;;;;;;10.30;99.90;;;;;;5018327;28;20679;-57
2022/04/17 07:02:42;;;;;;;10.57;9.13;;;10.50;95.10;;;;;;5014367;28;19921;-57
2022/04/17 07:05:10;;;;;;;12.52;9.70;;;10.80;99.90;;;;;;5013029;28;20113;-57
2022/04/17 07:07:36;;;;;;;10.90;8.85;;;10.90;97.80;;;;;;5012069;28;20104;-57
2022/04/17 07:10:03;;;;;;;10.00;8.95;;;11.20;94.60;;;;;;5013614;28;20050;-57
2022/04/17 07:12:29;;;;;;;9.25;8.13;;;11.40;82.30;;;;;;5009720;28;20049;-57
2022/04/17 07:14:56;;;;;;;10.45;8.45;;;11.70;78.40;;;;;;5012358;28;20053;-57
2022/04/17 07:17:35;;;;;;;9.75;8.20;;;11.90;78.90;;;;;;5014283;28;20060;-57
2022/04/17 07:20:08;;;;;;;12.20;8.40;;;12.30;74.10;;;;;;5014101;28;20045;-57
2022/04/17 07:22:35;;;;;;;11.60;8.20;;;12.50;70.60;;;;;;5019194;28;20050;-57
2022/04/17 07:25:03;;;;;;;9.40;7.93;;;12.90;68.80;;;;;;4975348;28;20053;-57
2022/04/17 07:27:38;;;;;;;8.63;7.57;;;13.30;67.60;;;;;;4998697;28;20053;-57
2022/04/17 07:30:09;;;;;;;9.13;7.53;;;13.50;60.90;;;;;;5013608;28;20041;-57
2022/04/17 07:32:35;;;;;;;9.80;7.97;;;13.70;57.60;;;;;;5012635;28;20048;-57
2022/04/17 07:35:01;;;;;;;9.65;6.95;;;13.90;57.30;;;;;;5010120;28;20182;-57
2022/04/17 07:37:27;;;;;;;9.45;7.50;;;13.90;56.50;;;;;;5008122;28;20465;-57
2022/04/17 07:39:53;;;;;;;12.40;7.43;;;14.10;55.80;;;;;;5011762;28;20083;-54
2022/04/17 07:42:21;;;;;;;7.97;7.10;;;14.00;53.60;;;;;;5010367;28;20046;-57
2022/04/17 07:44:48;;;;;;;9.55;7.43;;;14.00;53.90;;;;;;5012685;28;20115;-58
2022/04/17 07:47:16;;;;;;;8.27;6.97;;;14.00;54.20;;;;;;5019403;28;20433;-57
2022/04/17 07:49:43;;;;;;;9.57;6.88;;;14.20;54.10;;;;;;5013669;28;20611;-54
2022/04/17 07:52:09;;;;;;;8.57;7.50;;;14.30;53.10;;;;;;5008699;28;20491;-50
2022/04/17 07:54:36;;;;;;;10.82;7.25;;;14.40;53.10;;;;;;5006642;28;20052;-52
2022/04/17 07:57:02;;;;;;;10.85;7.38;;;14.50;51.90;;;;;;5021827;28;20041;-53
2022/04/17 07:59:28;;;;;;;9.75;7.45;;;14.60;51.40;;;;;;4989948;28;20041;-51
2022/04/17 08:02:11;;;;;;;8.18;6.60;;;14.60;51.10;;;;;;5022728;28;20044;-52
2022/04/17 08:04:43;;;;;;;8.10;6.57;;;14.80;50.90;;;;;;5006633;28;20116;-57
2022/04/17 08:07:09;;;;;;;9.15;6.95;;;14.80;49.70;;;;;;5019446;28;20496;-51
2022/04/17 08:09:35;;;;;;;8.23;7.22;;;15.10;50.00;;;;;;5021414;28;20118;-52
2022/04/17 08:12:01;;;;;;;9.82;6.75;;;15.30;50.30;;;;;;5001093;28;20046;-50
2022/04/17 08:14:27;;;;;;;8.90;6.47;;;15.60;50.00;;;;;;5004095;28;20049;-52
2022/04/17 08:16:53;;;;;;;8.18;6.35;;;15.80;49.10;;;;;;5005048;28;20128;-52
2022/04/17 08:19:19;;;;;;;7.63;6.70;;;16.00;47.90;;;;;;5015741;28;20056;-49
2022/04/17 08:21:45;;;;;;;9.95;6.43;;;16.10;48.00;;;;;;5019386;28;20083;-52
2022/04/17 08:24:11;;;;;;;7.50;6.50;;;16.40;46.90;;;;;;5024503;28;20473;-52
2022/04/17 08:26:38;;;;;;;9.15;6.22;;;16.70;46.40;;;;;;5023990;28;20576;-58
2022/04/17 08:29:04;;;;;;;7.80;5.72;;;16.90;46.40;;;;;;5022488;28;20060;-58
2022/04/17 08:31:30;;;;;;;8.27;5.93;;;16.90;43.80;;;;;;5011315;28;20123;-58
2022/04/17 08:33:56;;;;;;;6.50;4.60;;;17.00;43.20;;;;;;5003971;28;20053;-58
2022/04/17 08:36:22;;;;;;;6.90;5.07;;;17.20;43.80;;;;;;5011027;28;20058;-53
2022/04/17 08:38:48;;;;;;;7.28;4.70;;;17.60;42.70;;;;;;5006747;28;20081;-51
2022/04/17 08:41:15;;;;;;;5.65;4.75;;;17.60;41.40;;;;;;5005514;28;20137;-53
2022/04/17 08:43:43;;;;;;;6.95;4.88;;;17.70;40.60;;;;;;5004644;28;20048;-52
2022/04/17 08:46:11;;;;;;;6.97;4.45;;;17.60;42.80;;;;;;4990393;28;20042;-53
2022/04/17 08:48:37;;;;;;;6.20;4.47;;;17.40;41.60;;;;;;5017716;28;20056;-53
2022/04/17 08:51:05;;;;;;;5.82;4.78;;;17.60;41.60;;;;;;5015424;28;20567;-53
2022/04/17 08:53:36;;;;;;;6.65;4.85;;;17.80;40.70;;;;;;5006071;28;20672;-51
2022/04/17 08:56:03;;;;;;;7.13;4.83;;;18.10;40.10;;;;;;5018727;28;20053;-52
2022/04/17 08:58:30;;;;;;;7.22;4.90;;;18.30;40.60;;;;;;5003211;28;20060;-52
2022/04/17 09:00:56;;;;;;;6.35;5.18;;;18.20;40.50;;;;;;5017119;28;20412;-51
2022/04/17 09:03:23;;;;;;;7.70;5.13;;;18.20;39.10;;;;;;5004457;28;20079;-51
2022/04/17 09:05:49;;;;;;;7.75;5.30;;;18.20;39.70;;;;;;5004857;28;20046;-53
2022/04/17 09:08:18;;;;;;;7.20;5.30;;;18.40;40.20;;;;;;5004016;28;20848;-51
2022/04/17 09:10:55;;;;;;;6.68;4.97;;;18.30;39.90;;;;;;5004483;28;20042;-53
2022/04/17 09:13:29;;;;;;;6.78;4.53;;;18.00;38.40;;;;;;5018029;28;20100;-54
2022/04/17 09:15:56;;;;;;;7.15;4.82;;;18.40;40.20;;;;;;5022868;28;20049;-50
2022/04/17 09:18:22;;;;;;;6.45;4.72;;;18.40;40.10;;;;;;5018537;28;20057;-58
2022/04/17 09:20:49;;;;;;;6.57;5.35;;;18.90;39.70;;;;;;4998570;28;20132;-57
2022/04/17 09:23:36;;;;;;;7.05;4.93;;;19.00;40.00;;;;;;5011453;28;20140;-58
2022/04/17 09:26:04;;;;;;;5.72;5.13;;;19.10;39.60;;;;;;5014024;28;20759;-52
2022/04/17 09:28:35;;;;;;;7.50;5.40;;;19.20;40.00;;;;;;5013930;28;20037;-53
2022/04/17 09:31:11;;;;;;;6.22;5.13;;;19.30;39.40;;;;;;5002169;28;20037;-53
2022/04/17 09:33:40;;;;;;;7.90;5.47;;;19.50;39.10;;;;;;5002354;28;20048;-52
2022/04/17 09:36:08;;;;;;;7.13;5.10;;;19.60;39.60;;;;;;5004448;28;20137;-50
2022/04/17 09:38:34;;;;;;;7.47;5.05;;;19.30;38.80;;;;;;5015723;28;20042;-52
2022/04/17 09:41:19;;;;;;;7.00;5.43;;;19.70;39.60;;;;;;5008149;28;20085;-54
2022/04/17 09:43:47;;;;;;;6.15;5.05;;;19.50;38.40;;;;;;5019658;28;20115;-52
2022/04/17 09:46:14;;;;;;;7.28;5.03;;;19.50;38.00;;;;;;5021066;28;20140;-53
2022/04/17 09:48:43;;;;;;;6.22;5.32;;;20.10;37.70;;;;;;5002700;28;20494;-52
2022/04/17 09:51:28;;;;;;;7.10;5.22;;;20.00;37.40;;;;;;5013133;28;20053;-53
2022/04/17 09:54:05;;;;;;;6.07;4.68;;;19.50;35.60;;;;;;5015325;28;20121;-53
2022/04/17 09:56:34;;;;;;;7.55;5.88;;;20.20;36.40;;;;;;5010546;28;20073;-55
2022/04/17 09:59:13;;;;;;;7.93;5.40;;;20.00;37.20;;;;;;5023313;28;20049;-54
2022/04/17 10:01:39;;;;;;;6.85;4.95;;;20.40;37.00;;;;;;5016529;28;20720;-54
2022/04/17 10:04:06;;;;;;;6.40;5.07;;;20.60;37.30;;;;;;5024307;28;20072;-54
2022/04/17 10:06:34;;;;;;;6.32;5.10;;;20.80;36.40;;;;;;5025961;28;20484;-55
2022/04/17 10:09:01;;;;;;;7.43;5.25;;;20.20;36.10;;;;;;5026280;28;20130;-52
2022/04/17 10:11:29;;;;;;;6.45;5.10;;;20.70;36.30;;;;;;5014672;28;20042;-51
2022/04/17 10:13:57;;;;;;;6.20;4.80;;;20.60;36.70;;;;;;5013356;28;20071;-54
2022/04/17 10:16:24;;;;;;;6.43;4.85;;;20.70;36.60;;;;;;5015796;28;20144;-51
2022/04/17 10:18:50;;;;;;;6.22;4.53;;;21.20;36.70;;;;;;5022151;28;20060;-53
2022/04/17 10:21:21;;;;;;;6.45;4.20;;;21.40;36.10;;;;;;5013943;28;20073;-52
2022/04/17 10:23:50;;;;;;;5.38;4.55;;;21.40;34.80;;;;;;5008774;28;20117;-54
2022/04/17 10:26:20;;;;;;;5.75;4.13;;;21.70;34.30;;;;;;5010130;28;20386;-52
2022/04/17 10:28:55;;;;;;;6.18;3.90;;;21.80;33.70;;;;;;5015074;28;20397;-54
2022/04/17 10:31:21;;;;;;;4.80;3.15;;;21.70;32.20;;;;;;5006989;28;20130;-52
2022/04/17 10:34:09;;;;;;;4.40;3.83;;;21.70;32.80;;;;;;5025669;28;20060;-52
2022/04/17 10:36:56;;;;;;;6.28;4.28;;;21.70;34.00;;;;;;5020193;28;20124;-57
2022/04/17 10:39:32;;;;;;;5.85;4.35;;;21.80;32.60;;;;;;5021292;28;20921;-58
2022/04/17 10:41:58;;;;;;;6.15;4.00;;;21.90;33.00;;;;;;5020269;28;20045;-52
2022/04/17 10:44:29;;;;;;;4.97;3.55;;;21.60;33.50;;;;;;5023267;28;20050;-52
2022/04/17 10:46:56;;;;;;;6.60;4.70;;;21.60;31.90;;;;;;5010531;28;20047;-52
2022/04/17 10:49:28;;;;;;;4.53;3.60;;;22.10;32.20;;;;;;5006261;28;20049;-59
2022/04/17 10:51:56;;;;;;;8.38;4.07;;;22.20;31.90;;;;;;5011731;28;20044;-59
2022/04/17 10:54:46;;;;;;;4.78;3.40;;;22.20;31.70;;;;;;5018095;28;20111;-52
2022/04/17 10:57:12;;;;;;;5.60;3.78;;;22.00;31.70;;;;;;5024992;28;20108;-52
2022/04/17 10:59:40;;;;;;;5.65;3.95;;;21.80;32.10;;;;;;5018256;28;20167;-58
2022/04/17 11:02:10;;;;;;;5.65;3.97;;;21.90;32.70;;;;;;5020435;28;20053;-58
2022/04/17 11:04:53;;;;;;;5.78;3.65;;;22.10;32.40;;;;;;5017074;28;20050;-58
2022/04/17 11:07:22;;;;;;;6.35;3.60;;;22.50;31.40;;;;;;5023749;28;20745;-58
2022/04/17 11:10:03;;;;;;;7.25;3.78;;;22.40;30.80;;;;;;5014250;28;20175;-51
2022/04/17 11:12:29;;;;;;;6.65;4.20;;;22.60;31.40;;;;;;5023399;28;20061;-52
2022/04/17 11:15:01;;;;;;;5.70;3.95;;;22.30;31.00;;;;;;5024059;28;20045;-58
2022/04/17 11:17:29;;;;;;;5.43;4.25;;;22.50;30.90;;;;;;5021233;28;20050;-57
2022/04/17 11:19:56;;;;;;;5.95;4.38;;;22.50;30.70;;;;;;5024387;28;20072;-57
2022/04/17 11:22:34;;;;;;;4.55;3.60;;;22.60;30.50;;;;;;5020647;28;20464;-58
2022/04/17 11:25:02;;;;;;;5.30;4.07;;;22.70;30.60;;;;;;5022604;28;20052;-58
2022/04/17 11:27:49;;;;;;;5.95;4.57;;;22.60;31.50;;;;;;5021748;28;20041;-58
2022/04/17 11:30:22;;;;;;;5.72;4.03;;;22.50;30.00;;;;;;5014386;28;20517;-57
2022/04/17 11:32:51;;;;;;;5.75;4.68;;;23.00;31.00;;;;;;4990308;28;20057;-50
2022/04/17 11:35:22;;;;;;;5.53;4.20;;;23.50;31.50;;;;;;5023656;28;20054;-58
2022/04/17 11:38:09;;;;;;;6.28;4.35;;;23.50;30.00;;;;;;5021743;28;20203;-58
2022/04/17 11:40:37;;;;;;;5.38;4.18;;;23.50;30.00;;;;;;5004151;28;20056;-53
2022/04/17 11:43:07;;;;;;;5.55;4.18;;;23.40;29.90;;;;;;5005750;28;20041;-58
2022/04/17 11:45:33;;;;;;;6.13;4.60;;;23.50;30.00;;;;;;5000554;28;20094;-58
2022/04/17 11:48:04;;;;;;;5.53;3.85;;;23.70;30.30;;;;;;5015207;28;20084;-58
2022/04/17 11:50:30;;;;;;;;;;;23.70;31.20;;;;;;5020194;28;20056;-53
2022/04/17 11:52:59;;;;;;;5.28;3.97;;;23.50;28.60;;;;;;5010856;28;19932;-58
2022/04/17 11:55:31;;;;;;;6.85;4.03;;;22.90;29.00;;;;;;5025852;28;20087;-58
2022/04/17 11:57:58;;;;;;;5.60;3.78;;;22.60;29.20;;;;;;5024435;28;20073;-58
2022/04/17 12:00:26;;;;;;;5.05;3.70;;;22.90;29.90;;;;;;5016254;28;20052;-58
2022/04/17 12:03:03;;;;;;;5.65;4.30;;;22.70;28.70;;;;;;5016216;28;20046;-58
2022/04/17 12:05:30;;;;;;;5.32;4.57;;;22.40;30.80;;;;;;5021173;28;20107;-58
2022/04/17 12:07:59;;;;;;;6.65;5.07;;;22.20;30.70;;;;;;5022117;28;20077;-58
2022/04/17 12:10:25;;;;;;;7.47;4.25;;;22.60;29.80;;;;;;5018972;28;20102;-59
2022/04/17 12:12:51;;;;;;;6.05;4.35;;;23.10;29.90;;;;;;5017518;28;20049;-58
2022/04/17 12:15:17;;;;;;;5.88;4.47;;;23.60;29.70;;;;;;5016207;28;20049;-59
2022/04/17 12:17:43;;;;;;;6.25;4.55;;;23.20;29.70;;;;;;5019884;28;20101;-59
2022/04/17 12:20:14;;;;;;;7.78;6.38;;;23.40;30.20;;;;;;5016788;28;20056;-58
2022/04/17 12:22:42;;;;;;;8.57;6.50;;;23.00;29.30;;;;;;5017676;28;20389;-58
2022/04/17 12:25:17;;;;;;;6.63;4.80;;;23.30;29.80;;;;;;4998460;28;20084;-59
2022/04/17 12:27:45;;;;;;;6.35;4.88;;;23.40;29.30;;;;;;5014989;28;20075;-59
2022/04/17 12:30:12;;;;;;;6.43;5.30;;;23.50;30.10;;;;;;4997630;28;20104;-59
2022/04/17 12:32:46;;;;;;;6.93;5.32;;;23.30;30.20;;;;;;5014769;28;20057;-59
2022/04/17 12:35:20;;;;;;;8.38;6.00;;;23.40;31.00;;;;;;5015712;28;20060;-59
2022/04/17 12:37:46;;;;;;;6.10;5.00;;;23.10;29.90;;;;;;5019683;28;20049;-61
2022/04/17 12:40:22;;;;;;;6.35;5.40;;;23.00;30.30;;;;;;5017285;28;20129;-59
2022/04/17 12:42:49;;;;;;;6.82;5.35;;;23.30;29.60;;;;;;4997995;28;20114;-59
2022/04/17 12:45:24;;;;;;;8.07;5.90;;;23.70;30.20;;;;;;5014825;28;20539;-57
2022/04/17 12:48:07;;;;;;;7.15;6.13;;;23.70;29.50;;;;;;5015489;28;20127;-59
2022/04/17 12:50:34;;;;;;;7.28;5.38;;;23.70;30.00;;;;;;5014721;28;20057;-59
2022/04/17 12:53:01;;;;;;;7.07;5.43;;;23.60;29.40;;;;;;5028230;28;20845;-59
2022/04/17 12:55:34;;;;;;;7.55;5.65;;;23.10;29.10;;;;;;5012459;28;20669;-59
2022/04/17 12:58:03;;;;;;;7.53;6.15;;;23.40;28.90;;;;;;4986602;28;20046;-59
2022/04/17 13:00:30;;;;;;;7.03;5.35;;;23.80;28.70;;;;;;5017274;28;20054;-59
2022/04/17 13:03:13;;;;;;;8.23;5.57;;;24.00;29.30;;;;;;5013162;28;20041;-58